Rechercher aéroport 
image banner adimage banner adimage banner ad
image banner ad

1CL4 - Uci Medical Center

Situé à Orange, United States

ICAO - 1CL4, IATA -

Données fournies par Airmate  

Information générale

Coordonnées: N33°47'19" W117°53'26"
Élévation : 140 feet MSL.
Variation magnétique : 14° East
Voir autres Aéroports à California

Données opérationnelles

Special qualification required
Heure actuelle UTC:
Heure actuelle locale:
Météo à : KFUL - Fullerton Muni ( 12 km )
METAR: KFUL 300153Z VRB03KT 10SM CLR 27/15 A2984 RMK AO2 SLP102 T02720150
Voir NOTAMs / SUP AIP / TFR affectant cet aéroport [VIEW]
Fréquences de communication: [VIEW]

Pistes:

Coordonnées de l'aéroport

Adresse: Orange United States

Vue satellite de 1CL4